Time;durP1;ratioP1;P1;durP2;ratioP2;P2;SDS_P1;SDS_P2;PMS_P1;PMS_P2;Temp;Humidity;BMP_temperature;BMP_pressure;BME280_temperature;BME280_humidity;BME280_pressure;Samples;Min_cycle;Max_cycle;Signal;HPM_P1;HPM_P2
2022/04/07 00:01:49;;;;;;;;;9.80;8.40;;;;;16.72;39.34;98112.44;5048073;28;8853;-73
2022/04/07 00:04:18;;;;;;;;;8.60;5.60;;;;;16.83;39.66;98115.44;5047839;28;8857;-74
2022/04/07 00:06:47;;;;;;;;;5.40;5.20;;;;;16.66;41.48;98123.28;5048679;28;8883;-72
2022/04/07 00:09:16;;;;;;;;;9.20;7.40;;;;;16.07;46.17;98127.78;5060932;28;8817;-72
2022/04/07 00:11:45;;;;;;;;;8.80;5.40;;;;;15.64;49.84;98145.44;5049262;28;8857;-75
2022/04/07 00:14:14;;;;;;;;;6.20;4.80;;;;;15.52;53.02;98131.91;5049530;28;8853;-77
2022/04/07 00:16:42;;;;;;;;;6.00;5.40;;;;;15.20;57.69;98144.66;5013094;28;9598;-75
2022/04/07 00:19:12;;;;;;;;;7.00;5.20;;;;;14.75;61.20;98150.88;5064447;28;8861;-74
2022/04/07 00:21:46;;;;;;;;;10.00;5.00;;;;;14.40;63.76;98157.44;5031634;28;8915;-74
2022/04/07 00:24:16;;;;;;;;;9.80;8.00;;;;;13.91;66.86;98154.91;5046996;28;8853;-75
2022/04/07 00:26:44;;;;;;;;;11.20;10.20;;;;;13.86;68.18;98154.22;5048548;28;8865;-73
2022/04/07 00:29:13;;;;;;;;;10.20;5.00;;;;;13.41;71.78;98161.03;4997580;28;9003;-74
2022/04/07 00:31:42;;;;;;;;;7.80;5.80;;;;;13.17;73.58;98169.69;4996037;28;10097;-72
2022/04/07 00:34:13;;;;;;;;;6.00;3.40;;;;;13.01;75.29;98159.72;5027539;28;8836;-75
2022/04/07 00:36:41;;;;;;;;;5.20;3.00;;;;;12.78;76.69;98159.59;5033183;28;8852;-73
2022/04/07 00:39:10;;;;;;;;;5.20;4.80;;;;;12.76;77.00;98150.94;5028720;28;8848;-75
2022/04/07 00:41:39;;;;;;;;;7.60;7.40;;;;;12.81;77.67;98151.66;5028698;28;8859;-75
2022/04/07 00:44:08;;;;;;;;;7.80;5.80;;;;;12.89;77.03;98149.63;5010860;28;8867;-76
2022/04/07 00:46:38;;;;;;;;;5.60;4.20;;;;;12.94;75.69;98152.13;5027378;28;10162;-73
2022/04/07 00:49:07;;;;;;;;;9.80;5.20;;;;;13.09;75.34;98142.91;5038947;28;8833;-73
2022/04/07 00:51:41;;;;;;;;;13.00;8.00;;;;;12.86;77.38;98142.75;5047146;28;8844;-75
2022/04/07 00:54:10;;;;;;;;;9.00;6.80;;;;;12.98;77.00;98138.03;5048581;28;8972;-75
2022/04/07 00:56:41;;;;;;;;;10.60;7.60;;;;;12.97;76.90;98138.94;5048272;28;8845;-77
2022/04/07 00:59:17;;;;;;;;;8.40;5.20;;;;;12.96;77.39;98134.59;5013374;28;8841;-73
2022/04/07 01:01:46;;;;;;;;;8.80;5.00;;;;;12.94;77.04;98129.41;5030444;28;8845;-74
2022/04/07 01:04:16;;;;;;;;;10.00;5.60;;;;;13.03;75.92;98118.66;5041396;28;8840;-77
2022/04/07 01:06:47;;;;;;;;;10.00;9.80;;;;;13.03;75.14;98125.66;5028319;28;8933;-75
2022/04/07 01:09:16;;;;;;;;;5.80;3.60;;;;;13.04;74.75;98124.72;5028330;28;8883;-73
2022/04/07 01:11:46;;;;;;;;;8.20;6.80;;;;;12.88;74.42;98138.31;5037940;28;8841;-75
2022/04/07 01:14:15;;;;;;;;;10.60;6.20;;;;;12.92;73.38;98144.31;5048256;28;8861;-76
2022/04/07 01:16:44;;;;;;;;;9.60;7.20;;;;;12.95;73.45;98145.97;5047726;28;8881;-73
2022/04/07 01:19:12;;;;;;;;;8.60;4.00;;;;;13.05;73.24;98140.38;5063527;28;8876;-72
2022/04/07 01:21:42;;;;;;;;;8.20;4.40;;;;;13.02;74.48;98142.25;5039375;28;9032;-74
2022/04/07 01:24:13;;;;;;;;;10.20;7.20;;;;;12.84;75.11;98133.25;5028004;28;8856;-74
2022/04/07 01:26:45;;;;;;;;;8.40;6.60;;;;;12.63;75.93;98137.41;5028469;28;8867;-74
2022/04/07 01:29:15;;;;;;;;;9.20;3.60;;;;;12.82;75.85;98137.69;5028309;28;8843;-74
2022/04/07 01:31:45;;;;;;;;;10.80;7.40;;;;;12.64;74.91;98131.28;5045341;28;8850;-76
2022/04/07 01:34:15;;;;;;;;;7.00;5.00;;;;;12.59;76.33;98141.00;5030121;28;8969;-72
2022/04/07 01:36:47;;;;;;;;;8.60;5.40;;;;;12.63;76.62;98134.81;5051460;28;8905;-73
2022/04/07 01:39:24;;;;;;;;;8.20;4.00;;;;;12.76;76.06;98136.13;5033932;28;8938;-72
2022/04/07 01:41:55;;;;;;;;;5.40;4.00;;;;;12.83;77.61;98124.53;5049359;28;9018;-73
2022/04/07 01:44:27;;;;;;;;;6.80;3.80;;;;;12.77;77.35;98129.13;5048873;28;8880;-73
2022/04/07 01:46:57;;;;;;;;;3.80;3.40;;;;;12.65;76.27;98133.00;5049085;28;8846;-73
2022/04/07 01:49:27;;;;;;;;;5.00;3.60;;;;;12.72;76.54;98131.03;5016013;28;8882;-72
2022/04/07 01:51:56;;;;;;;;;7.00;5.80;;;;;12.82;75.37;98133.31;4999805;28;8830;-72
2022/04/07 01:54:24;;;;;;;;;4.20;3.80;;;;;12.90;74.09;98129.59;5057782;28;8896;-73
2022/04/07 01:56:55;;;;;;;;;8.00;3.00;;;;;12.92;73.38;98133.00;4999473;28;8868;-75
2022/04/07 01:59:26;;;;;;;;;9.00;6.20;;;;;13.03;72.83;98129.13;5007272;28;8869;-74
2022/04/07 02:01:54;;;;;;;;;5.00;4.00;;;;;13.01;73.78;98125.69;5001739;28;8874;-74
2022/04/07 02:04:23;;;;;;;;;4.80;4.80;;;;;13.05;72.43;98127.31;4982280;28;8880;-74
2022/04/07 02:06:51;;;;;;;;;4.20;2.60;;;;;13.12;72.23;98114.88;4959017;28;8881;-74
2022/04/07 02:09:20;;;;;;;;;3.00;3.00;;;;;13.10;71.63;98115.81;4989806;28;8873;-74
2022/04/07 02:11:49;;;;;;;;;4.40;4.00;;;;;13.07;71.15;98108.94;4974660;28;8979;-77
2022/04/07 02:14:18;;;;;;;;;5.00;4.00;;;;;13.16;71.84;98102.53;4992513;28;8868;-73
2022/04/07 02:16:47;;;;;;;;;8.60;6.40;;;;;13.20;72.21;98101.53;5008654;28;8975;-74
2022/04/07 02:19:16;;;;;;;;;7.20;3.60;;;;;13.19;73.15;98102.41;5008661;28;8881;-74
2022/04/07 02:21:45;;;;;;;;;7.20;4.20;;;;;13.24;73.06;98103.97;5008957;28;8992;-73
2022/04/07 02:24:14;;;;;;;;;8.60;4.00;;;;;13.22;71.42;98095.31;4960721;28;8858;-73
2022/04/07 02:26:43;;;;;;;;;8.20;4.80;;;;;13.26;72.33;98082.97;4993214;28;8903;-73
2022/04/07 02:29:11;;;;;;;;;5.40;4.20;;;;;13.15;71.60;98082.50;5041043;28;8847;-73
2022/04/07 02:31:42;;;;;;;;;9.60;6.40;;;;;13.24;71.38;98084.81;5063584;28;8836;-74
2022/04/07 02:34:10;;;;;;;;;6.00;4.40;;;;;13.20;70.59;98073.59;5031215;28;8844;-74
2022/04/07 02:36:39;;;;;;;;;7.20;3.40;;;;;13.29;70.20;98061.94;5008666;28;8854;-73
2022/04/07 02:39:07;;;;;;;;;4.60;3.00;;;;;13.41;70.88;98060.69;4976064;28;9587;-73
2022/04/07 02:41:36;;;;;;;;;3.60;3.40;;;;;13.35;70.93;98058.28;5008397;28;8850;-74
2022/04/07 02:44:05;;;;;;;;;5.80;2.60;;;;;13.45;71.09;98057.03;4991999;28;8897;-75
2022/04/07 02:46:34;;;;;;;;;3.80;2.60;;;;;13.52;70.75;98062.91;5019234;28;8867;-72
2022/04/07 02:49:04;;;;;;;;;2.80;2.20;;;;;13.62;71.12;98046.78;5011707;28;8867;-75
2022/04/07 02:51:32;;;;;;;;;6.40;5.80;;;;;13.73;70.84;98050.78;4962439;28;8917;-74
2022/04/07 02:54:01;;;;;;;;;5.20;4.80;;;;;13.47;69.03;98041.28;5012986;28;8939;-73
2022/04/07 02:56:30;;;;;;;;;8.20;4.20;;;;;13.00;71.05;98032.38;5008163;28;8862;-77
2022/04/07 02:58:59;;;;;;;;;6.40;6.40;;;;;12.48;72.89;98018.47;5014537;28;8859;-74
2022/04/07 03:01:30;;;;;;;;;6.80;5.00;;;;;12.40;71.98;98013.50;5011196;28;8832;-73
2022/04/07 03:03:59;;;;;;;;;9.40;7.60;;;;;12.23;72.61;98005.34;5018689;28;8993;-73
2022/04/07 03:06:30;;;;;;;;;8.00;3.80;;;;;12.31;72.96;97998.13;5027879;28;8864;-75
2022/04/07 03:08:58;;;;;;;;;15.60;13.20;;;;;12.42;72.45;97992.50;5049652;28;8880;-75
2022/04/07 03:11:27;;;;;;;;;8.20;8.20;;;;;12.24;72.62;97988.75;5050004;28;8873;-73
2022/04/07 03:13:55;;;;;;;;;7.20;3.20;;;;;12.42;72.64;97989.91;5048577;28;8845;-73
2022/04/07 03:16:24;;;;;;;;;9.20;5.00;;;;;12.62;71.77;97981.41;5049573;28;8915;-73
2022/04/07 03:18:51;;;;;;;;;1.20;1.20;;;;;12.77;71.96;97983.50;5045969;28;8867;-77
2022/04/07 03:21:20;;;;;;;;;6.20;3.60;;;;;12.99;71.53;97975.75;5041363;28;8895;-74
2022/04/07 03:23:50;;;;;;;;;2.80;2.40;;;;;13.13;70.17;97964.78;5064978;28;8949;-73
2022/04/07 03:26:19;;;;;;;;;3.60;3.60;;;;;13.23;69.67;97962.66;5049443;28;8839;-74
2022/04/07 03:28:47;;;;;;;;;8.00;3.00;;;;;13.33;68.27;97965.84;4998959;28;9010;-77
2022/04/07 03:31:16;;;;;;;;;4.60;3.20;;;;;13.22;66.62;97956.59;5030908;28;9669;-73
2022/04/07 03:33:45;;;;;;;;;8.00;4.60;;;;;12.91;67.15;97951.63;5029817;28;9720;-73
2022/04/07 03:36:14;;;;;;;;;2.00;0.80;;;;;12.99;68.20;97954.81;5029723;28;8855;-78
2022/04/07 03:38:43;;;;;;;;;3.20;3.20;;;;;12.97;67.43;97950.56;5024602;28;9315;-75
2022/04/07 03:41:13;;;;;;;;;4.00;2.00;;;;;13.11;69.90;97953.50;5028375;28;8867;-73
2022/04/07 03:43:42;;;;;;;;;5.80;5.40;;;;;13.15;71.08;97944.63;5011595;28;8893;-74
2022/04/07 03:46:12;;;;;;;;;3.60;3.20;;;;;13.18;71.93;97943.69;5011653;28;8851;-73
2022/04/07 03:48:41;;;;;;;;;3.40;3.40;;;;;13.22;71.49;97946.13;5030085;28;8851;-74
2022/04/07 03:51:10;;;;;;;;;3.40;2.80;;;;;13.30;71.90;97944.97;5029424;28;8958;-74
2022/04/07 03:53:38;;;;;;;;;18.00;15.60;;;;;13.41;71.58;97945.47;5036588;28;8847;-72
2022/04/07 03:56:07;;;;;;;;;29.50;29.00;;;;;13.52;70.58;97940.69;5050663;28;8868;-73
2022/04/07 03:58:37;;;;;;;;;10.20;9.20;;;;;13.55;71.10;97935.31;5027849;28;8987;-73
2022/04/07 04:01:06;;;;;;;;;7.20;7.20;;;;;13.51;70.83;97944.19;5044618;28;8862;-73
2022/04/07 04:03:34;;;;;;;;;4.80;4.80;;;;;13.56;70.21;97941.41;5028806;28;8868;-73
2022/04/07 04:06:04;;;;;;;;;7.40;5.00;;;;;13.55;71.12;97944.94;5029108;28;8879;-74
2022/04/07 04:08:33;;;;;;;;;10.80;5.00;;;;;13.31;70.44;97944.09;5027510;28;8913;-73
2022/04/07 04:11:01;;;;;;;;;8.20;5.40;;;;;13.10;71.89;97954.44;5033651;28;8945;-73
2022/04/07 04:13:31;;;;;;;;;10.60;6.80;;;;;13.19;72.55;97953.22;5029635;28;8859;-73
2022/04/07 04:16:02;;;;;;;;;10.80;10.80;;;;;13.11;71.88;97950.91;5029955;28;9577;-72
2022/04/07 04:18:30;;;;;;;;;6.40;6.20;;;;;13.22;73.42;97956.59;4994176;28;8990;-73
2022/04/07 04:21:00;;;;;;;;;4.60;3.80;;;;;13.15;72.75;97946.41;5027082;28;8929;-74
2022/04/07 04:23:29;;;;;;;;;8.00;5.40;;;;;13.18;73.39;97949.75;5028792;28;8847;-73
2022/04/07 04:25:57;;;;;;;;;7.80;6.20;;;;;12.85;72.64;97949.22;5017502;28;8907;-72
2022/04/07 04:28:26;;;;;;;;;9.40;7.40;;;;;12.59;75.47;97960.56;5047076;28;8857;-74
2022/04/07 04:30:54;;;;;;;;;5.80;4.00;;;;;12.74;75.35;97967.91;5047841;28;8955;-73
2022/04/07 04:33:24;;;;;;;;;17.00;12.60;;;;;12.82;75.23;97973.72;5048180;28;8976;-76
2022/04/07 04:35:58;;;;;;;;;10.80;9.40;;;;;12.80;74.51;97978.16;5049348;28;8867;-72
2022/04/07 04:38:27;;;;;;;;;6.60;4.20;;;;;12.79;75.00;97984.28;5046719;28;8872;-73
2022/04/07 04:40:56;;;;;;;;;3.20;3.00;;;;;12.84;75.32;97979.75;5045802;28;8872;-74
2022/04/07 04:43:25;;;;;;;;;5.20;2.80;;;;;12.59;76.56;97987.59;5044029;28;8921;-75
2022/04/07 04:45:53;;;;;;;;;5.00;3.20;;;;;12.79;75.70;97999.97;5027656;28;8851;-79
2022/04/07 04:48:22;;;;;;;;;5.80;5.00;;;;;12.88;75.19;97994.44;5028041;28;8854;-75
2022/04/07 04:50:52;;;;;;;;;3.00;3.00;;;;;12.95;75.30;97997.69;5026936;28;8859;-73
2022/04/07 04:53:20;;;;;;;;;6.60;3.80;;;;;13.02;75.14;97993.09;5027170;28;8921;-74
2022/04/07 04:55:49;;;;;;;;;2.00;2.00;;;;;13.12;74.23;98001.47;5025853;28;8914;-76
2022/04/07 04:58:18;;;;;;;;;3.20;3.00;;;;;12.97;73.74;98005.50;5008978;28;8867;-74
2022/04/07 05:00:46;;;;;;;;;9.80;6.60;;;;;12.63;73.68;98014.50;5027445;28;8879;-73
2022/04/07 05:03:15;;;;;;;;;6.40;4.40;;;;;12.78;75.59;98008.75;5027832;28;8917;-77
2022/04/07 05:05:44;;;;;;;;;4.00;4.00;;;;;12.86;73.95;98006.72;5010718;28;8873;-74
2022/04/07 05:08:14;;;;;;;;;3.00;3.00;;;;;12.91;73.53;98000.47;5028001;28;8876;-74
2022/04/07 05:10:43;;;;;;;;;3.60;3.20;;;;;12.95;73.89;98002.94;5026112;28;8884;-74
2022/04/07 05:13:11;;;;;;;;;1.40;1.00;;;;;12.95;73.39;97997.69;4992924;28;8868;-72
2022/04/07 05:15:40;;;;;;;;;1.20;1.00;;;;;12.91;72.50;98006.56;5045990;28;8849;-74
2022/04/07 05:18:09;;;;;;;;;2.20;2.20;;;;;12.87;72.58;98003.22;5050024;28;8861;-73
2022/04/07 05:20:38;;;;;;;;;1.60;1.00;;;;;12.43;74.18;98016.00;5030292;28;8869;-76
2022/04/07 05:23:06;;;;;;;;;2.00;2.00;;;;;12.21;73.80;98009.75;5046826;28;8999;-79
2022/04/07 05:25:36;;;;;;;;;1.80;1.80;;;;;12.46;73.46;98012.44;5050334;28;8962;-76
2022/04/07 05:28:06;;;;;;;;;3.40;2.00;;;;;12.50;74.05;98013.22;5047164;28;8860;-75
2022/04/07 05:30:34;;;;;;;;;3.00;3.00;;;;;12.61;74.10;98016.31;5037171;28;8881;-76
2022/04/07 05:33:03;;;;;;;;;3.60;3.60;;;;;12.60;74.10;98019.81;4993281;28;8863;-75
2022/04/07 05:35:32;;;;;;;;;2.40;2.40;;;;;12.67;74.17;98018.72;5033027;28;8885;-76
2022/04/07 05:38:01;;;;;;;;;4.00;3.80;;;;;12.45;73.73;98023.81;5023420;28;8863;-72
2022/04/07 05:40:33;;;;;;;;;3.20;3.20;;;;;12.57;74.85;98018.19;5026219;28;8839;-78
2022/04/07 05:43:04;;;;;;;;;7.00;7.00;;;;;12.69;75.38;98014.28;5027307;28;8844;-73
2022/04/07 05:45:34;;;;;;;;;5.40;5.20;;;;;12.59;74.39;98018.09;5009383;28;8859;-75
2022/04/07 05:48:03;;;;;;;;;9.00;9.00;;;;;12.43;74.54;98017.78;5007487;28;10307;-72
2022/04/07 05:50:31;;;;;;;;;10.20;7.60;;;;;12.51;75.71;98010.50;5030367;28;8934;-72
2022/04/07 05:53:00;;;;;;;;;4.60;4.20;;;;;12.56;74.86;98013.84;5046937;28;8821;-74
2022/04/07 05:55:29;;;;;;;;;6.60;4.00;;;;;12.66;75.30;98012.66;5044919;28;8825;-74
2022/04/07 05:57:57;;;;;;;;;7.20;6.00;;;;;12.63;74.54;98012.75;5047711;28;8875;-71
2022/04/07 06:00:28;;;;;;;;;10.40;9.20;;;;;12.68;74.81;98012.56;5051323;28;8841;-74
2022/04/07 06:02:57;;;;;;;;;6.80;6.80;;;;;12.81;74.51;98013.84;5062582;28;8941;-73
2022/04/07 06:05:26;;;;;;;;;5.20;5.20;;;;;12.79;74.08;98010.44;5047256;28;8892;-77
2022/04/07 06:07:58;;;;;;;;;4.80;4.00;;;;;12.67;72.69;98009.09;5007921;28;8863;-77
2022/04/07 06:10:27;;;;;;;;;1.80;1.80;;;;;12.75;73.94;98014.06;5048118;28;8872;-76
2022/04/07 06:12:56;;;;;;;;;5.20;5.20;;;;;12.89;73.43;98005.75;5045095;28;9610;-75
2022/04/07 06:15:25;;;;;;;;;4.80;4.80;;;;;12.75;73.27;98003.63;5023710;28;8879;-76
2022/04/07 06:17:55;;;;;;;;;4.00;4.00;;;;;12.91;73.40;97998.72;5027464;28;8863;-71
2022/04/07 06:20:23;;;;;;;;;4.00;4.00;;;;;13.01;74.29;98002.72;5032429;28;8927;-75
2022/04/07 06:22:52;;;;;;;;;4.60;4.00;;;;;13.16;73.12;98000.47;5047220;28;8973;-72
2022/04/07 06:25:21;;;;;;;;;7.00;6.60;;;;;13.29;73.79;98000.84;5046737;28;9225;-71
2022/04/07 06:27:49;;;;;;;;;6.60;5.00;;;;;13.34;72.16;97991.97;5027035;28;8879;-72
2022/04/07 06:30:19;;;;;;;;;7.00;5.00;;;;;13.41;72.87;97996.06;5024680;28;8850;-72
2022/04/07 06:32:49;;;;;;;;;8.00;7.60;;;;;13.52;71.95;97987.81;5047485;28;8984;-73
2022/04/07 06:35:19;;;;;;;;;8.20;8.20;;;;;13.58;73.46;97986.72;5013798;28;8858;-72
2022/04/07 06:37:52;;;;;;;;;12.80;9.40;;;;;13.62;71.39;97980.47;5046892;28;8873;-72
2022/04/07 06:40:22;;;;;;;;;14.40;13.80;;;;;13.61;71.32;97981.34;5017791;28;8830;-73
2022/04/07 06:42:52;;;;;;;;;9.80;9.80;;;;;13.45;72.61;97983.72;4998471;28;8830;-74
2022/04/07 06:45:26;;;;;;;;;12.20;11.20;;;;;13.57;72.71;97978.03;5031205;28;8846;-73
2022/04/07 06:47:55;;;;;;;;;13.40;10.80;;;;;13.75;72.56;97975.59;5047124;28;8870;-73
2022/04/07 06:50:26;;;;;;;;;20.20;20.00;;;;;13.70;71.50;97973.16;5047985;28;8955;-71
2022/04/07 06:52:56;;;;;;;;;14.20;14.20;;;;;13.86;71.38;97962.94;5041205;28;8868;-72
2022/04/07 06:55:26;;;;;;;;;13.40;11.00;;;;;13.92;71.44;97962.69;5029947;28;9657;-72
2022/04/07 06:57:56;;;;;;;;;10.40;9.60;;;;;14.09;70.95;97961.19;5038305;28;8845;-72
2022/04/07 07:00:26;;;;;;;;;14.00;10.00;;;;;14.22;69.97;97962.38;5034309;28;8863;-73
2022/04/07 07:02:56;;;;;;;;;14.80;11.40;;;;;14.07;68.15;97969.09;5003128;28;8919;-72
2022/04/07 07:05:29;;;;;;;;;14.40;11.00;;;;;14.21;68.82;97973.78;5035996;28;8998;-73
2022/04/07 07:07:58;;;;;;;;;11.00;11.00;;;;;14.26;69.17;97978.84;5043681;28;8990;-73
2022/04/07 07:10:28;;;;;;;;;9.80;9.80;;;;;14.40;68.60;97984.34;5030453;28;8870;-73
2022/04/07 07:12:59;;;;;;;;;10.80;9.80;;;;;14.51;67.62;97984.75;4984778;28;8865;-75
2022/04/07 07:15:28;;;;;;;;;8.00;7.00;;;;;14.50;67.26;97982.19;5037238;28;8863;-73
2022/04/07 07:17:57;;;;;;;;;10.40;8.40;;;;;14.51;68.08;97992.63;5029632;28;8902;-70
2022/04/07 07:20:27;;;;;;;;;10.60;10.60;;;;;14.56;67.76;97997.72;5028373;28;8859;-73
2022/04/07 07:22:56;;;;;;;;;10.40;9.60;;;;;14.57;67.66;98000.31;5042484;28;8830;-71
2022/04/07 07:25:25;;;;;;;;;12.40;8.40;;;;;14.55;67.15;98003.84;5027399;28;8891;-70
2022/04/07 07:27:54;;;;;;;;;10.00;9.00;;;;;14.64;68.15;98003.50;5046748;28;8935;-74
2022/04/07 07:30:23;;;;;;;;;12.80;9.40;;;;;14.49;67.79;98004.13;5047394;28;8865;-72
2022/04/07 07:32:58;;;;;;;;;10.80;10.00;;;;;13.91;70.03;98002.91;5041953;28;8867;-72
2022/04/07 07:35:28;;;;;;;;;17.20;14.60;;;;;13.63;69.65;97998.75;5041550;28;8857;-72
2022/04/07 07:37:59;;;;;;;;;11.20;10.60;;;;;13.62;69.35;98002.25;5047359;28;8918;-75
2022/04/07 07:40:30;;;;;;;;;10.80;10.00;;;;;13.67;70.32;98009.97;5033560;28;8853;-72
2022/04/07 07:43:00;;;;;;;;;12.20;12.20;;;;;14.04;70.42;98019.88;5061008;28;8945;-73
2022/04/07 07:45:32;;;;;;;;;13.60;13.60;;;;;13.78;70.12;98017.38;5031826;28;8856;-72
2022/04/07 07:48:24;;;;;;;;;11.40;10.40;;;;;14.06;70.75;98011.94;5047705;28;8893;-73
2022/04/07 07:50:55;;;;;;;;;17.80;16.80;;;;;14.38;69.69;98010.63;5044747;28;9579;-74
2022/04/07 07:53:24;;;;;;;;;19.20;15.80;;;;;14.66;68.89;98019.19;5037280;28;8875;-72
2022/04/07 07:55:54;;;;;;;;;10.80;10.80;;;;;14.88;67.32;98009.50;5027468;28;8868;-74
2022/04/07 07:58:25;;;;;;;;;12.40;11.20;;;;;14.46;67.39;98019.97;5036157;28;8944;-73
2022/04/07 08:00:54;;;;;;;;;9.80;9.60;;;;;14.83;67.53;98016.72;5045220;28;10017;-73
2022/04/07 08:03:22;;;;;;;;;12.20;11.20;;;;;15.00;65.99;98011.56;5041449;28;8845;-71
2022/04/07 08:05:51;;;;;;;;;10.60;9.60;;;;;15.00;63.35;98013.34;5038908;28;8902;-76
2022/04/07 08:08:21;;;;;;;;;13.20;11.40;;;;;14.01;67.10;98022.63;5037192;28;8873;-72
2022/04/07 08:10:50;;;;;;;;;9.00;9.00;;;;;13.47;68.08;98021.16;5037527;28;8894;-73
2022/04/07 08:13:19;;;;;;;;;11.20;8.60;;;;;13.61;69.67;98010.16;5034595;28;8873;-75
2022/04/07 08:15:47;;;;;;;;;12.00;11.20;;;;;13.28;69.36;98015.72;5037827;28;8853;-74
2022/04/07 08:18:16;;;;;;;;;6.20;6.20;;;;;12.59;68.31;98015.50;4978452;28;8886;-72
2022/04/07 08:20:45;;;;;;;;;9.80;7.40;;;;;12.83;69.43;98019.88;5027509;28;8854;-72
2022/04/07 08:23:13;;;;;;;;;7.60;6.80;;;;;12.63;71.01;98019.75;5011241;28;8858;-75
2022/04/07 08:25:44;;;;;;;;;7.40;6.80;;;;;12.91;71.62;98024.00;5044253;28;8878;-76
2022/04/07 08:28:13;;;;;;;;;9.00;9.00;;;;;12.73;68.64;98017.66;5044483;28;8884;-76
2022/04/07 08:30:41;;;;;;;;;10.20;10.20;;;;;12.46;70.50;98023.75;5031668;28;8899;-73
2022/04/07 08:33:10;;;;;;;;;14.00;11.40;;;;;12.57;70.50;98020.78;5007880;28;8860;-72
2022/04/07 08:35:38;;;;;;;;;11.00;9.60;;;;;12.98;69.49;98012.44;4985013;28;8848;-72
2022/04/07 08:38:09;;;;;;;;;9.80;9.80;;;;;13.43;68.35;98007.34;5026122;28;8937;-73
2022/04/07 08:40:40;;;;;;;;;48.50;42.00;;;;;13.16;67.89;98014.41;5027718;28;8886;-74
2022/04/07 08:43:10;;;;;;;;;34.75;28.50;;;;;12.70;70.97;98017.75;5042535;28;8871;-71
2022/04/07 08:45:38;;;;;;;;;14.00;14.00;;;;;12.40;70.58;98018.75;5026715;28;8885;-72
2022/04/07 08:48:11;;;;;;;;;25.60;23.40;;;;;11.96;70.96;98018.38;5043605;28;9963;-72
2022/04/07 08:50:41;;;;;;;;;8.40;8.40;;;;;11.83;71.45;98022.22;5026192;28;8872;-73
2022/04/07 08:53:11;;;;;;;;;14.00;10.00;;;;;11.83;71.56;98030.06;5037467;28;8966;-71
2022/04/07 08:55:40;;;;;;;;;14.40;13.80;;;;;11.85;72.90;98025.63;5030457;28;8867;-74
2022/04/07 08:58:17;;;;;;;;;16.00;15.00;;;;;12.01;72.92;98032.16;5044664;28;8889;-72
2022/04/07 09:00:47;;;;;;;;;16.00;14.60;;;;;11.76;72.63;98031.13;5043369;28;8857;-72
2022/04/07 09:03:16;;;;;;;;;15.80;14.00;;;;;11.77;71.31;98028.47;5028598;28;9634;-71
2022/04/07 09:05:56;;;;;;;;;14.20;12.60;;;;;11.70;71.37;98029.56;5036327;28;8891;-72
2022/04/07 09:08:32;;;;;;;;;17.20;16.00;;;;;11.58;71.71;98027.31;5011737;28;8841;-72
2022/04/07 09:11:02;;;;;;;;;18.20;13.40;;;;;11.51;70.73;98027.50;5002534;28;8883;-72
2022/04/07 09:13:34;;;;;;;;;20.20;17.40;;;;;11.56;70.67;98024.75;5041968;28;8860;-73
2022/04/07 09:16:04;;;;;;;;;19.40;15.40;;;;;11.39;72.32;98025.25;5037689;28;8876;-74
2022/04/07 09:18:36;;;;;;;;;18.80;18.80;;;;;11.52;72.04;98018.75;5029628;28;8826;-71
2022/04/07 09:21:05;;;;;;;;;20.60;18.40;;;;;11.86;71.56;98009.94;5037053;28;8875;-70
2022/04/07 09:23:38;;;;;;;;;16.60;14.40;;;;;11.80;69.99;98011.88;5026492;28;9632;-73
2022/04/07 09:26:11;;;;;;;;;14.00;13.60;;;;;11.95;69.75;98006.22;5035429;28;8898;-77
2022/04/07 09:28:42;;;;;;;;;20.60;18.80;;;;;12.04;69.52;98003.31;5039744;28;8845;-73
2022/04/07 09:31:13;;;;;;;;;14.40;13.60;;;;;12.16;67.03;98006.47;5034168;28;8860;-75
2022/04/07 09:33:43;;;;;;;;;19.60;16.00;;;;;12.02;68.04;98006.88;5027479;28;9522;-71
2022/04/07 09:36:19;;;;;;;;;17.60;16.00;;;;;12.17;66.31;97998.53;5045928;28;8912;-70
2022/04/07 09:38:51;;;;;;;;;21.60;20.60;;;;;12.37;67.63;97995.28;5041693;28;8894;-72
2022/04/07 09:41:21;;;;;;;;;13.20;12.80;;;;;12.66;65.13;97990.84;5027111;28;8843;-72
2022/04/07 09:43:53;;;;;;;;;15.40;14.60;;;;;13.10;62.38;97988.47;5009825;28;8982;-72
2022/04/07 09:46:22;;;;;;;;;13.80;11.80;;;;;13.06;62.14;97992.06;5031505;28;8829;-73
2022/04/07 09:49:00;;;;;;;;;10.80;10.00;;;;;12.62;62.44;97997.09;5045766;28;9034;-77
2022/04/07 09:51:29;;;;;;;;;14.20;13.20;;;;;12.86;62.57;97982.31;5042083;28;9613;-73
2022/04/07 09:53:58;;;;;;;;;13.80;13.20;;;;;12.82;62.97;97988.56;5025999;28;8895;-73
2022/04/07 09:56:29;;;;;;;;;12.20;10.20;;;;;12.66;63.00;97994.34;5046834;28;8863;-72
2022/04/07 09:59:00;;;;;;;;;12.80;12.20;;;;;12.37;63.61;97978.78;5019161;28;8879;-72
2022/04/07 10:01:33;;;;;;;;;13.20;13.20;;;;;12.47;64.42;97978.38;5030338;28;9056;-71
2022/04/07 10:04:04;;;;;;;;;14.80;14.80;;;;;12.50;64.61;97985.28;5020986;28;8909;-71
2022/04/07 10:06:34;;;;;;;;;14.20;10.40;;;;;12.57;62.33;97981.56;5043958;28;8864;-72
2022/04/07 10:09:05;;;;;;;;;14.80;13.80;;;;;12.35;63.94;97985.81;5025149;28;8905;-76
2022/04/07 10:11:36;;;;;;;;;11.80;11.80;;;;;12.39;63.31;97976.94;5045312;28;9492;-72
2022/04/07 10:14:08;;;;;;;;;11.60;11.60;;;;;12.23;63.56;97966.13;5030233;28;8847;-75
2022/04/07 10:16:45;;;;;;;;;15.60;15.00;;;;;12.36;64.46;97970.09;5040985;28;8839;-72
2022/04/07 10:19:21;;;;;;;;;9.40;9.40;;;;;12.35;62.05;97967.50;5030182;28;8885;-72
2022/04/07 10:22:12;;;;;;;;;15.00;12.80;;;;;12.40;61.82;97969.06;5030661;28;8857;-72
2022/04/07 10:24:47;;;;;;;;;12.80;10.20;;;;;12.30;62.29;97972.88;4998825;28;8858;-73
2022/04/07 10:27:41;;;;;;;;;10.60;10.20;;;;;12.25;62.86;97970.41;5042154;28;8881;-73
2022/04/07 10:30:12;;;;;;;;;8.20;8.20;;;;;12.21;62.86;97962.72;5015276;28;8999;-71
2022/04/07 10:32:43;;;;;;;;;7.60;6.80;;;;;12.38;62.19;97963.03;5030974;28;8909;-70
2022/04/07 10:35:29;;;;;;;;;16.00;16.00;;;;;12.66;62.62;97954.22;5047659;28;8882;-72
2022/04/07 10:37:58;;;;;;;;;10.60;10.60;;;;;12.85;60.82;97954.44;5047833;28;10201;-71
2022/04/07 10:40:44;;;;;;;;;13.00;10.20;;;;;12.70;55.90;97953.22;5047495;28;8959;-70
2022/04/07 10:43:21;;;;;;;;;8.60;8.00;;;;;12.75;56.69;97947.84;5047389;28;8898;-73
2022/04/07 10:45:53;;;;;;;;;7.40;7.40;;;;;12.79;57.59;97949.44;5046661;28;8895;-73
2022/04/07 10:48:29;;;;;;;;;14.60;10.00;;;;;12.92;57.73;97948.09;5036741;28;8845;-73
2022/04/07 10:51:00;;;;;;;;;9.80;9.80;;;;;13.34;57.43;97946.59;5051082;28;8845;-73
2022/04/07 10:53:32;;;;;;;;;11.80;10.00;;;;;12.93;58.64;97951.56;5047642;28;8853;-71
2022/04/07 10:56:08;;;;;;;;;8.60;8.40;;;;;12.83;59.32;97941.41;5038283;28;8895;-72
2022/04/07 10:58:39;;;;;;;;;14.00;13.60;;;;;12.70;60.54;97947.97;5030448;28;8864;-72
2022/04/07 11:01:14;;;;;;;;;12.80;12.80;;;;;12.59;61.46;97947.50;5041222;28;8887;-73
2022/04/07 11:04:03;;;;;;;;;11.40;11.20;;;;;12.61;61.83;97943.94;5029509;28;8942;-71
2022/04/07 11:06:31;;;;;;;;;10.80;10.80;;;;;12.89;60.44;97942.97;5043901;28;9590;-72
2022/04/07 11:09:13;;;;;;;;;13.60;12.00;;;;;12.48;59.79;97945.28;5048035;28;8934;-75
2022/04/07 11:11:52;;;;;;;;;12.40;11.60;;;;;12.31;63.38;97948.47;5039758;28;8883;-74
2022/04/07 11:14:27;;;;;;;;;20.80;18.80;;;;;12.35;64.63;97952.66;5029410;28;8836;-70
2022/04/07 11:17:00;;;;;;;;;24.40;21.40;;;;;12.54;64.20;97947.66;5048836;28;8865;-71
2022/04/07 11:19:41;;;;;;;;;25.60;20.00;;;;;12.68;64.02;97947.19;5014525;28;8864;-76
2022/04/07 11:22:12;;;;;;;;;21.00;18.00;;;;;12.57;64.93;97950.19;5044889;28;8853;-71
2022/04/07 11:24:44;;;;;;;;;20.60;20.60;;;;;12.16;66.67;97954.19;5028547;28;8859;-70
2022/04/07 11:27:35;;;;;;;;;26.80;22.60;;;;;12.13;67.77;97942.06;5028888;28;8909;-73
2022/04/07 11:30:06;;;;;;;;;23.40;22.40;;;;;12.27;68.06;97952.94;5029332;28;8878;-75
2022/04/07 11:32:38;;;;;;;;;33.00;28.25;;;;;12.26;68.70;97945.97;4978970;28;8852;-73
2022/04/07 11:35:14;;;;;;;;;26.00;23.40;;;;;12.08;67.89;97936.16;4979299;28;8839;-74
2022/04/07 11:37:44;;;;;;;;;13.80;12.00;;;;;11.87;69.52;97946.34;5046460;28;8869;-75
2022/04/07 11:40:13;;;;;;;;;29.40;27.00;;;;;11.91;70.43;97941.91;5046320;28;8853;-72
2022/04/07 11:42:41;;;;;;;;;33.75;28.00;;;;;11.80;70.22;97942.22;5029355;28;8952;-70
2022/04/07 11:45:10;;;;;;;;;30.40;26.80;;;;;11.75;71.55;97944.13;5011974;28;8836;-75
2022/04/07 11:47:40;;;;;;;;;32.25;31.25;;;;;11.87;71.53;97946.34;5028046;28;8864;-72
2022/04/07 11:50:10;;;;;;;;;29.75;27.50;;;;;12.08;69.78;97941.38;5044560;28;9075;-72